createdAt,value
2019-03-15T00:00:22.436Z,0
2019-03-15T00:01:23.821Z,0
2019-03-15T00:02:25.220Z,0
2019-03-15T00:03:26.605Z,0
2019-03-15T00:04:27.988Z,0
2019-03-15T00:05:29.390Z,0
2019-03-15T00:06:30.861Z,0
2019-03-15T00:07:32.336Z,0
2019-03-15T00:08:33.717Z,0
2019-03-15T00:09:35.101Z,0
2019-03-15T00:10:36.487Z,0
2019-03-15T00:11:37.876Z,0
2019-03-15T00:12:39.266Z,0
2019-03-15T00:13:40.653Z,0
2019-03-15T00:14:42.047Z,0
2019-03-15T00:15:43.430Z,0
2019-03-15T00:16:44.812Z,0
2019-03-15T00:17:46.197Z,0
2019-03-15T00:18:47.595Z,0
2019-03-15T00:19:48.986Z,0
2019-03-15T00:20:50.396Z,0
2019-03-15T00:21:51.784Z,0
2019-03-15T00:22:53.178Z,0
2019-03-15T00:23:54.565Z,0
2019-03-15T00:24:55.952Z,0
2019-03-15T00:25:57.340Z,0
2019-03-15T00:26:58.728Z,0
2019-03-15T00:28:00.112Z,0
2019-03-15T00:29:01.502Z,0
2019-03-15T00:30:02.887Z,0
2019-03-15T00:31:04.273Z,0
2019-03-15T00:32:05.658Z,0
2019-03-15T00:33:07.048Z,0
2019-03-15T00:34:08.437Z,0
2019-03-15T00:35:09.821Z,0
2019-03-15T00:36:11.207Z,0
2019-03-15T00:37:12.597Z,0
2019-03-15T00:38:13.980Z,0
2019-03-15T00:39:15.364Z,0
2019-03-15T00:40:16.869Z,0
2019-03-15T00:41:18.102Z,0
2019-03-15T00:42:19.488Z,0
2019-03-15T00:43:20.874Z,0
2019-03-15T00:44:22.255Z,0
2019-03-15T00:45:23.640Z,0
2019-03-15T00:46:25.024Z,0
2019-03-15T00:47:26.419Z,0
2019-03-15T00:48:27.821Z,0
2019-03-15T00:49:29.205Z,0
2019-03-15T00:50:30.599Z,0
2019-03-15T00:51:31.981Z,0
2019-03-15T00:52:33.366Z,0
2019-03-15T00:53:34.756Z,0
2019-03-15T00:54:36.143Z,0
2019-03-15T00:55:37.527Z,0
2019-03-15T00:56:38.915Z,0
2019-03-15T00:57:40.427Z,0
2019-03-15T00:58:41.812Z,0
2019-03-15T00:59:43.202Z,0
2019-03-15T01:00:44.593Z,0
2019-03-15T01:01:45.979Z,0
2019-03-15T01:02:47.363Z,0
2019-03-15T01:03:48.753Z,0
2019-03-15T01:04:50.148Z,0
2019-03-15T01:05:51.543Z,0
2019-03-15T01:06:52.915Z,0
2019-03-15T01:07:54.307Z,0
2019-03-15T01:08:55.689Z,0
2019-03-15T01:09:57.075Z,0
2019-03-15T01:10:58.462Z,0
2019-03-15T01:11:59.852Z,0
2019-03-15T01:13:01.233Z,0
2019-03-15T01:14:02.618Z,0
2019-03-15T01:15:04.010Z,0
2019-03-15T01:16:05.402Z,0
2019-03-15T01:17:06.793Z,0
2019-03-15T01:18:08.177Z,0
2019-03-15T01:19:10.217Z,0
2019-03-15T01:20:10.914Z,0
2019-03-15T01:21:12.297Z,0
2019-03-15T01:22:13.723Z,0
2019-03-15T01:23:15.111Z,0
2019-03-15T01:24:16.497Z,0
2019-03-15T01:25:17.883Z,0
2019-03-15T01:26:19.263Z,0
2019-03-15T01:27:20.738Z,0
2019-03-15T01:28:22.005Z,0
2019-03-15T01:29:23.391Z,0
2019-03-15T01:30:24.794Z,0
2019-03-15T01:31:26.158Z,0
2019-03-15T01:32:27.545Z,0
2019-03-15T01:33:28.932Z,0
2019-03-15T01:34:30.319Z,0
2019-03-15T01:35:33.538Z,0
2019-03-15T01:36:33.051Z,0
2019-03-15T01:37:34.434Z,0
2019-03-15T01:38:35.826Z,0
2019-03-15T01:39:37.212Z,0
2019-03-15T01:40:38.923Z,0
2019-03-15T01:41:39.951Z,0
2019-03-15T01:42:41.341Z,0
2019-03-15T01:43:42.723Z,0
2019-03-15T01:44:44.107Z,0
2019-03-15T01:45:45.500Z,0
2019-03-15T01:46:46.888Z,0
2019-03-15T01:47:48.389Z,0
2019-03-15T01:48:49.776Z,0
2019-03-15T01:49:51.203Z,0
2019-03-15T01:50:52.590Z,0
2019-03-15T01:51:53.974Z,0
2019-03-15T01:52:55.363Z,0
2019-03-15T01:53:56.750Z,0
2019-03-15T01:54:58.140Z,0
2019-03-15T01:55:59.649Z,0
2019-03-15T01:57:00.899Z,0
2019-03-15T01:58:02.278Z,0
2019-03-15T01:59:03.665Z,0
2019-03-15T02:00:05.050Z,0
2019-03-15T02:01:06.434Z,0
2019-03-15T02:02:07.821Z,0
2019-03-15T02:03:09.212Z,0
2019-03-15T02:04:10.602Z,0
2019-03-15T02:05:11.981Z,0
2019-03-15T02:06:13.367Z,0
2019-03-15T02:07:14.786Z,0
2019-03-15T02:08:16.099Z,0
2019-03-15T02:09:18.557Z,0
2019-03-15T02:10:21.774Z,0
2019-03-15T02:11:20.189Z,0
2019-03-15T02:12:21.966Z,0
2019-03-15T02:13:22.913Z,0
2019-03-15T02:14:24.305Z,0
2019-03-15T02:15:25.695Z,0
2019-03-15T02:16:27.088Z,0
2019-03-15T02:17:28.469Z,0
2019-03-15T02:18:29.856Z,0
2019-03-15T02:19:31.240Z,0
2019-03-15T02:20:32.624Z,0
2019-03-15T02:21:34.014Z,0
2019-03-15T02:22:35.399Z,0
2019-03-15T02:23:36.786Z,0
2019-03-15T02:24:38.168Z,0
2019-03-15T02:25:39.551Z,0
2019-03-15T02:26:40.932Z,0
2019-03-15T02:27:42.318Z,0
2019-03-15T02:28:43.701Z,0
2019-03-15T02:29:45.087Z,0
2019-03-15T02:30:46.474Z,0
2019-03-15T02:31:47.853Z,0
2019-03-15T02:32:49.250Z,0
2019-03-15T02:33:50.632Z,0
2019-03-15T02:34:52.080Z,0
2019-03-15T02:35:53.404Z,0
2019-03-15T02:36:54.904Z,0
2019-03-15T02:37:56.146Z,0
2019-03-15T02:38:57.582Z,0
2019-03-15T02:39:58.982Z,0
2019-03-15T02:41:00.369Z,0
2019-03-15T02:42:01.760Z,0
2019-03-15T02:43:03.144Z,0
2019-03-15T02:44:04.529Z,0
2019-03-15T02:45:06.286Z,0
2019-03-15T02:46:07.318Z,0
2019-03-15T02:47:08.714Z,0
2019-03-15T02:48:10.102Z,0
2019-03-15T02:49:11.485Z,0
2019-03-15T02:50:12.867Z,0
2019-03-15T02:51:14.265Z,0
2019-03-15T02:52:15.778Z,0
2019-03-15T02:53:16.985Z,0
2019-03-15T02:54:18.371Z,0
2019-03-15T02:55:21.065Z,0
2019-03-15T02:56:21.107Z,0
2019-03-15T02:57:22.504Z,0
2019-03-15T02:58:23.889Z,0
2019-03-15T02:59:25.305Z,0
2019-03-15T03:00:26.668Z,0
2019-03-15T03:01:28.063Z,0
2019-03-15T03:02:29.437Z,0
2019-03-15T03:03:30.867Z,0
2019-03-15T03:04:32.251Z,0
2019-03-15T03:05:34.330Z,0
2019-03-15T03:06:34.983Z,0
2019-03-15T03:07:36.375Z,0
2019-03-15T03:08:37.751Z,0
2019-03-15T03:09:39.154Z,0
2019-03-15T03:10:40.546Z,0
2019-03-15T03:11:41.929Z,0
2019-03-15T03:12:43.980Z,0
2019-03-15T03:13:44.671Z,0
2019-03-15T03:14:46.051Z,0
2019-03-15T03:15:47.433Z,0
2019-03-15T03:16:48.818Z,0
2019-03-15T03:17:50.221Z,0
2019-03-15T03:18:51.624Z,0
2019-03-15T03:19:54.093Z,0
2019-03-15T03:20:54.409Z,0
2019-03-15T03:21:55.770Z,0
2019-03-15T03:22:57.169Z,0
2019-03-15T03:23:58.558Z,0
2019-03-15T03:24:59.944Z,0
2019-03-15T03:26:01.330Z,0
2019-03-15T03:27:02.720Z,0
2019-03-15T03:28:04.118Z,0
2019-03-15T03:29:05.535Z,0
2019-03-15T03:30:07.133Z,0
2019-03-15T03:31:08.331Z,0
2019-03-15T03:32:09.718Z,0
2019-03-15T03:33:12.445Z,0
2019-03-15T03:34:12.758Z,0
2019-03-15T03:35:13.837Z,0
2019-03-15T03:36:15.196Z,0
2019-03-15T03:37:16.588Z,0
2019-03-15T03:38:17.967Z,0
2019-03-15T03:39:19.356Z,0
2019-03-15T03:40:21.148Z,0
2019-03-15T03:41:23.152Z,0
2019-03-15T03:42:23.443Z,0
2019-03-15T03:43:24.823Z,0
2019-03-15T03:44:26.304Z,0
2019-03-15T03:45:27.560Z,0
2019-03-15T03:46:28.945Z,0
2019-03-15T03:47:32.552Z,0
2019-03-15T03:48:31.736Z,0
2019-03-15T03:49:33.160Z,0
2019-03-15T03:50:34.555Z,0
2019-03-15T03:51:35.941Z,0
2019-03-15T03:52:37.324Z,0
2019-03-15T03:53:38.712Z,0
2019-03-15T03:54:40.095Z,0
2019-03-15T03:55:41.478Z,0
2019-03-15T03:56:43.417Z,0
2019-03-15T03:57:44.224Z,0
2019-03-15T03:58:45.616Z,0
2019-03-15T03:59:47.000Z,0
2019-03-15T04:00:48.391Z,0
2019-03-15T04:01:49.780Z,0
2019-03-15T04:02:53.250Z,0
2019-03-15T04:03:52.569Z,0
2019-03-15T04:04:53.951Z,0
2019-03-15T04:05:55.341Z,0
2019-03-15T04:06:56.751Z,0
2019-03-15T04:07:58.130Z,0
2019-03-15T04:08:59.542Z,0
2019-03-15T04:10:00.920Z,0
2019-03-15T04:11:02.303Z,0
2019-03-15T04:12:03.691Z,0
2019-03-15T04:13:05.076Z,0
2019-03-15T04:14:06.469Z,0
2019-03-15T04:15:07.854Z,0
2019-03-15T04:16:09.270Z,0
2019-03-15T04:17:10.665Z,0
2019-03-15T04:18:12.373Z,0
2019-03-15T04:19:13.399Z,0
2019-03-15T04:20:14.800Z,0
2019-03-15T04:21:16.247Z,0
2019-03-15T04:22:19.941Z,0
2019-03-15T04:23:21.387Z,0
2019-03-15T04:24:22.770Z,0
2019-03-15T04:25:24.159Z,0
2019-03-15T04:26:25.546Z,0
2019-03-15T04:27:26.925Z,0
2019-03-15T04:28:28.317Z,0
2019-03-15T04:29:29.714Z,0
2019-03-15T04:30:31.100Z,0
2019-03-15T04:31:32.488Z,0
2019-03-15T04:32:34.282Z,0
2019-03-15T04:33:35.234Z,0
2019-03-15T04:34:36.631Z,0
2019-03-15T04:35:38.013Z,0
2019-03-15T04:36:39.403Z,0
2019-03-15T04:37:40.791Z,0
2019-03-15T04:38:42.180Z,0
2019-03-15T04:39:43.567Z,0
2019-03-15T04:40:44.951Z,0
2019-03-15T04:41:46.337Z,0
2019-03-15T04:42:47.724Z,0
2019-03-15T04:43:49.119Z,0
2019-03-15T04:44:50.506Z,0
2019-03-15T04:45:51.890Z,0
2019-03-15T04:46:53.276Z,0
2019-03-15T04:47:54.660Z,0
2019-03-15T04:48:56.045Z,0
2019-03-15T04:49:57.427Z,0
2019-03-15T04:50:58.817Z,0
2019-03-15T04:52:00.205Z,0
2019-03-15T04:53:01.594Z,0
2019-03-15T04:54:05.512Z,0
2019-03-15T04:55:04.324Z,0
2019-03-15T04:56:05.718Z,0
2019-03-15T04:57:07.098Z,0
2019-03-15T04:58:08.496Z,0
2019-03-15T04:59:09.887Z,0
2019-03-15T05:00:11.271Z,0
2019-03-15T05:01:12.664Z,0
2019-03-15T05:02:14.048Z,0
2019-03-15T05:03:15.438Z,0
2019-03-15T05:04:16.819Z,0
2019-03-15T05:05:18.213Z,0
2019-03-15T05:06:19.597Z,0
2019-03-15T05:07:21.061Z,0
2019-03-15T05:08:22.487Z,0
2019-03-15T05:09:23.905Z,0
2019-03-15T05:10:25.290Z,0
2019-03-15T05:11:26.674Z,0
2019-03-15T05:12:28.060Z,0
2019-03-15T05:13:29.553Z,0
2019-03-15T05:14:30.805Z,0
2019-03-15T05:15:32.193Z,0
2019-03-15T05:16:33.573Z,0
2019-03-15T05:17:34.963Z,0
2019-03-15T05:18:36.349Z,0
2019-03-15T05:19:37.745Z,0
2019-03-15T05:20:39.146Z,0
2019-03-15T05:21:40.490Z,0
2019-03-15T05:22:41.877Z,0
2019-03-15T05:23:43.258Z,0
2019-03-15T05:24:44.645Z,0
2019-03-15T05:25:46.037Z,0
2019-03-15T05:26:47.423Z,0
2019-03-15T05:27:48.816Z,0
2019-03-15T05:28:50.207Z,4
2019-03-15T05:29:51.594Z,4
2019-03-15T05:30:52.975Z,0
2019-03-15T05:31:54.366Z,0
2019-03-15T05:32:55.745Z,0
2019-03-15T05:33:57.134Z,0
2019-03-15T05:34:58.526Z,4
2019-03-15T05:35:59.911Z,4
2019-03-15T05:37:01.316Z,4
2019-03-15T05:38:02.708Z,0
2019-03-15T05:39:04.088Z,4
2019-03-15T05:40:05.478Z,4
2019-03-15T05:41:06.873Z,8
2019-03-15T05:42:08.254Z,4
2019-03-15T05:43:09.646Z,4
2019-03-15T05:44:11.052Z,8
2019-03-15T05:45:12.437Z,8
2019-03-15T05:46:13.827Z,8
2019-03-15T05:47:15.214Z,12
2019-03-15T05:48:16.598Z,8
2019-03-15T05:49:18.009Z,12
2019-03-15T05:50:19.407Z,16
2019-03-15T05:51:20.803Z,12
2019-03-15T05:52:22.188Z,16
2019-03-15T05:53:23.569Z,16
2019-03-15T05:54:24.960Z,16
2019-03-15T05:55:26.348Z,20
2019-03-15T05:56:27.734Z,20
2019-03-15T05:57:29.120Z,24
2019-03-15T05:58:30.681Z,20
2019-03-15T05:59:32.163Z,24
2019-03-15T06:00:33.550Z,28
2019-03-15T06:01:34.934Z,28
2019-03-15T06:02:36.331Z,36
2019-03-15T06:03:47.757Z,36
2019-03-15T06:04:39.083Z,36
2019-03-15T06:05:40.500Z,40
2019-03-15T06:06:41.886Z,44
2019-03-15T06:07:43.272Z,44
2019-03-15T06:08:44.663Z,48
2019-03-15T06:09:46.051Z,48
2019-03-15T06:10:47.442Z,52
2019-03-15T06:11:48.832Z,52
2019-03-15T06:12:50.224Z,52
2019-03-15T06:13:51.636Z,60
2019-03-15T06:14:53.022Z,60
2019-03-15T06:15:54.591Z,64
2019-03-15T06:16:55.924Z,68
2019-03-15T06:17:57.308Z,68
2019-03-15T06:18:58.700Z,72
2019-03-15T06:20:00.124Z,72
2019-03-15T06:21:01.480Z,76
2019-03-15T06:22:02.861Z,76
2019-03-15T06:23:04.278Z,72
2019-03-15T06:24:05.662Z,80
2019-03-15T06:25:07.054Z,88
2019-03-15T06:26:08.436Z,96
2019-03-15T06:27:09.829Z,96
2019-03-15T06:28:11.222Z,92
2019-03-15T06:29:12.663Z,92
2019-03-15T06:30:14.046Z,92
2019-03-15T06:31:15.430Z,96
2019-03-15T06:32:16.818Z,100
2019-03-15T06:33:18.207Z,108
2019-03-15T06:34:19.591Z,112
2019-03-15T06:35:20.984Z,120
2019-03-15T06:36:22.375Z,124
2019-03-15T06:37:24.187Z,132
2019-03-15T06:38:25.589Z,140
2019-03-15T06:39:26.981Z,148
2019-03-15T06:40:28.368Z,156
2019-03-15T06:41:29.757Z,164
2019-03-15T06:42:31.200Z,172
2019-03-15T06:43:32.588Z,176
2019-03-15T06:44:37.244Z,180
2019-03-15T06:45:35.333Z,172
2019-03-15T06:46:36.791Z,184
2019-03-15T06:47:38.334Z,180
2019-03-15T06:48:39.740Z,176
2019-03-15T06:49:41.132Z,216
2019-03-15T06:50:42.520Z,192
2019-03-15T06:51:43.941Z,148
2019-03-15T06:52:45.338Z,136
2019-03-15T06:53:47.979Z,192
2019-03-15T06:54:48.084Z,188
2019-03-15T06:55:49.474Z,172
2019-03-15T06:56:50.864Z,176
2019-03-15T06:57:52.250Z,172
2019-03-15T06:58:53.645Z,164
2019-03-15T06:59:55.036Z,156
2019-03-15T07:00:57.179Z,164
2019-03-15T07:01:57.774Z,160
2019-03-15T07:02:59.913Z,156
2019-03-15T07:04:01.290Z,224
2019-03-15T07:05:02.676Z,216
2019-03-15T07:06:04.069Z,256
2019-03-15T07:07:05.466Z,264
2019-03-15T07:08:06.860Z,220
2019-03-15T07:09:08.321Z,192
2019-03-15T07:10:09.707Z,192
2019-03-15T07:11:11.147Z,204
2019-03-15T07:12:12.537Z,192
2019-03-15T07:13:13.947Z,204
2019-03-15T07:14:15.970Z,200
2019-03-15T07:15:16.735Z,228
2019-03-15T07:16:18.125Z,236
2019-03-15T07:17:19.513Z,220
2019-03-15T07:18:20.900Z,212
2019-03-15T07:19:27.670Z,196
2019-03-15T07:20:23.706Z,224
2019-03-15T07:21:25.093Z,204
2019-03-15T07:22:26.481Z,220
2019-03-15T07:23:27.874Z,232
2019-03-15T07:24:29.268Z,228
2019-03-15T07:25:30.660Z,236
2019-03-15T07:26:32.048Z,212
2019-03-15T07:27:33.434Z,216
2019-03-15T07:28:34.913Z,204
2019-03-15T07:29:36.297Z,240
2019-03-15T07:30:37.689Z,252
2019-03-15T07:31:39.077Z,264
2019-03-15T07:32:40.468Z,280
2019-03-15T07:33:41.850Z,308
2019-03-15T07:34:43.249Z,316
2019-03-15T07:35:44.665Z,320
2019-03-15T07:36:46.144Z,384
2019-03-15T07:37:47.783Z,364
2019-03-15T07:38:48.891Z,404
2019-03-15T07:39:50.286Z,440
2019-03-15T07:40:51.666Z,428
2019-03-15T07:41:53.054Z,420
2019-03-15T07:42:54.442Z,424
2019-03-15T07:43:55.874Z,396
2019-03-15T07:44:57.263Z,416
2019-03-15T07:45:58.655Z,468
2019-03-15T07:47:00.054Z,452
2019-03-15T07:48:01.448Z,524
2019-03-15T07:49:02.927Z,580
2019-03-15T07:50:04.188Z,584
2019-03-15T07:51:05.577Z,612
2019-03-15T07:52:06.972Z,720
2019-03-15T07:53:08.370Z,660
2019-03-15T07:54:09.765Z,688
2019-03-15T07:55:11.153Z,704
2019-03-15T07:56:12.545Z,736
2019-03-15T07:57:13.932Z,688
2019-03-15T07:58:15.331Z,620
2019-03-15T07:59:16.730Z,556
2019-03-15T08:00:18.083Z,624
2019-03-15T08:01:19.469Z,552
2019-03-15T08:02:20.863Z,524
2019-03-15T08:03:22.255Z,572
2019-03-15T08:04:23.647Z,600
2019-03-15T08:05:25.039Z,676
2019-03-15T08:06:34.548Z,648
2019-03-15T08:07:36.132Z,576
2019-03-15T08:08:29.173Z,596
2019-03-15T08:09:30.537Z,560
2019-03-15T08:10:31.926Z,524
2019-03-15T08:11:33.318Z,464
2019-03-15T08:12:34.712Z,460
2019-03-15T08:13:36.105Z,504
2019-03-15T08:14:37.502Z,500
2019-03-15T08:15:38.897Z,512
2019-03-15T08:16:40.286Z,504
2019-03-15T08:17:41.678Z,496
2019-03-15T08:18:43.066Z,468
2019-03-15T08:19:44.460Z,472
2019-03-15T08:20:45.853Z,480
2019-03-15T08:21:47.247Z,512
2019-03-15T08:22:48.636Z,532
2019-03-15T08:23:50.036Z,564
2019-03-15T08:24:51.975Z,628
2019-03-15T08:25:52.786Z,684
2019-03-15T08:26:54.261Z,640
2019-03-15T08:27:55.680Z,608
2019-03-15T08:28:57.068Z,660
2019-03-15T08:29:58.458Z,664
2019-03-15T08:30:59.848Z,716
2019-03-15T08:32:01.238Z,816
2019-03-15T08:33:10.112Z,856
2019-03-15T08:34:03.982Z,912
2019-03-15T08:35:05.370Z,908
2019-03-15T08:36:06.769Z,812
2019-03-15T08:37:08.172Z,832
2019-03-15T08:38:09.571Z,856
2019-03-15T08:39:10.966Z,912
2019-03-15T08:40:12.387Z,872
2019-03-15T08:41:13.813Z,812
2019-03-15T08:42:15.206Z,792
2019-03-15T08:43:16.599Z,740
2019-03-15T08:44:17.995Z,816
2019-03-15T08:45:19.389Z,900
2019-03-15T08:46:20.781Z,780
2019-03-15T08:47:22.195Z,692
2019-03-15T08:48:23.563Z,588
2019-03-15T08:49:24.951Z,604
2019-03-15T08:50:26.345Z,656
2019-03-15T08:51:27.730Z,640
2019-03-15T08:52:29.124Z,832
2019-03-15T08:53:30.513Z,748
2019-03-15T08:54:31.910Z,936
2019-03-15T08:55:33.308Z,912
2019-03-15T08:56:34.702Z,796
2019-03-15T08:57:36.102Z,900
2019-03-15T08:58:37.492Z,940
2019-03-15T08:59:52.162Z,860
2019-03-15T09:00:40.240Z,880
2019-03-15T09:01:41.631Z,840
2019-03-15T09:02:43.044Z,760
2019-03-15T09:03:44.433Z,948
2019-03-15T09:04:45.822Z,1020
2019-03-15T09:05:47.210Z,904
2019-03-15T09:06:48.599Z,804
2019-03-15T09:07:49.992Z,916
2019-03-15T09:08:51.390Z,1104
2019-03-15T09:09:52.778Z,1116
2019-03-15T09:10:54.169Z,1128
2019-03-15T09:11:55.584Z,1092
2019-03-15T09:12:56.973Z,1068
2019-03-15T09:13:58.364Z,868
2019-03-15T09:14:59.758Z,780
2019-03-15T09:16:01.212Z,940
2019-03-15T09:17:02.644Z,980
2019-03-15T09:18:04.000Z,944
2019-03-15T09:19:05.401Z,1028
2019-03-15T09:20:06.784Z,1136
2019-03-15T09:21:08.173Z,1220
2019-03-15T09:22:09.570Z,1272
2019-03-15T09:23:10.963Z,956
2019-03-15T09:24:12.354Z,1056
2019-03-15T09:25:19.193Z,1000
2019-03-15T09:26:15.103Z,1080
2019-03-15T09:27:16.491Z,1180
2019-03-15T09:28:17.880Z,980
2019-03-15T09:29:19.270Z,1008
2019-03-15T09:30:24.368Z,1004
2019-03-15T09:31:22.174Z,1136
2019-03-15T09:32:23.567Z,1172
2019-03-15T09:33:24.965Z,1084
2019-03-15T09:34:26.350Z,1156
2019-03-15T09:35:27.741Z,1036
2019-03-15T09:36:29.131Z,1064
2019-03-15T09:37:30.522Z,1348
2019-03-15T09:38:31.922Z,1324
2019-03-15T09:39:33.305Z,1476
2019-03-15T09:40:34.703Z,1316
2019-03-15T09:41:39.882Z,1436
2019-03-15T09:42:37.457Z,1324
2019-03-15T09:43:38.956Z,1232
2019-03-15T09:44:40.205Z,1064
2019-03-15T09:45:41.595Z,1292
2019-03-15T09:46:42.992Z,1436
2019-03-15T09:47:44.384Z,1272
2019-03-15T09:48:45.773Z,1420
2019-03-15T09:49:47.162Z,1188
2019-03-15T09:50:51.487Z,1156
2019-03-15T09:51:50.191Z,980
2019-03-15T09:52:51.591Z,848
2019-03-15T09:53:52.987Z,828
2019-03-15T09:54:54.377Z,940
2019-03-15T09:55:55.764Z,1032
2019-03-15T09:56:57.158Z,1172
2019-03-15T09:57:58.547Z,1292
2019-03-15T09:58:59.939Z,1056
2019-03-15T10:00:01.327Z,996
2019-03-15T10:01:02.793Z,1068
2019-03-15T10:02:04.085Z,1096
2019-03-15T10:03:05.476Z,1024
2019-03-15T10:04:07.450Z,1136
2019-03-15T10:05:11.326Z,1332
2019-03-15T10:06:15.056Z,984
2019-03-15T10:07:11.669Z,992
2019-03-15T10:08:12.946Z,1056
2019-03-15T10:09:14.342Z,1040
2019-03-15T10:10:18.298Z,1096
2019-03-15T10:11:17.090Z,1608
2019-03-15T10:12:18.479Z,1624
2019-03-15T10:13:19.869Z,1556
2019-03-15T10:14:21.303Z,1388
2019-03-15T10:15:26.016Z,1584
2019-03-15T10:16:24.010Z,1380
2019-03-15T10:17:25.399Z,1372
2019-03-15T10:18:26.792Z,1072
2019-03-15T10:19:29.719Z,1264
2019-03-15T10:20:29.542Z,1116
2019-03-15T10:21:30.932Z,960
2019-03-15T10:22:32.331Z,948
2019-03-15T10:23:33.721Z,888
2019-03-15T10:24:35.120Z,1040
2019-03-15T10:25:46.110Z,1176
2019-03-15T10:26:37.882Z,1220
2019-03-15T10:27:39.276Z,1360
2019-03-15T10:28:40.677Z,1232
2019-03-15T10:29:42.088Z,1100
2019-03-15T10:30:43.484Z,1164
2019-03-15T10:31:44.873Z,1332
2019-03-15T10:32:46.264Z,1284
2019-03-15T10:33:50.663Z,1444
2019-03-15T10:34:49.015Z,1520
2019-03-15T10:35:50.404Z,1628
2019-03-15T10:36:51.797Z,1356
2019-03-15T10:37:53.188Z,1328
2019-03-15T10:38:54.583Z,1304
2019-03-15T10:39:55.972Z,1504
2019-03-15T10:40:57.366Z,1432
2019-03-15T10:41:58.754Z,1384
2019-03-15T10:43:00.149Z,1504
2019-03-15T10:44:04.067Z,1896
2019-03-15T10:45:02.906Z,1700
2019-03-15T10:46:06.186Z,1540
2019-03-15T10:47:05.660Z,1708
2019-03-15T10:48:08.075Z,1564
2019-03-15T10:49:08.407Z,1732
2019-03-15T10:50:09.799Z,1440
2019-03-15T10:51:11.191Z,1584
2019-03-15T10:52:12.589Z,1704
2019-03-15T10:53:13.979Z,1856
2019-03-15T10:54:15.369Z,1756
2019-03-15T10:55:20.191Z,1656
2019-03-15T10:56:18.172Z,1616
2019-03-15T10:57:19.564Z,1460
2019-03-15T10:58:20.958Z,1848
2019-03-15T10:59:22.354Z,1432
2019-03-15T11:00:23.745Z,1652
2019-03-15T11:01:25.134Z,1520
2019-03-15T11:02:26.529Z,1496
2019-03-15T11:03:27.927Z,1388
2019-03-15T11:04:29.324Z,1232
2019-03-15T11:05:30.724Z,1036
2019-03-15T11:06:32.123Z,1156
2019-03-15T11:07:33.513Z,1168
2019-03-15T11:08:34.909Z,932
2019-03-15T11:09:36.299Z,1056
2019-03-15T11:10:37.698Z,1020
2019-03-15T11:11:39.090Z,1052
2019-03-15T11:12:40.484Z,1092
2019-03-15T11:13:41.973Z,1124
2019-03-15T11:14:43.279Z,1188
2019-03-15T11:15:44.671Z,1276
2019-03-15T11:16:46.063Z,1120
2019-03-15T11:17:47.479Z,1076
2019-03-15T11:18:48.877Z,976
2019-03-15T11:19:50.266Z,976
2019-03-15T11:20:51.660Z,1184
2019-03-15T11:21:53.055Z,952
2019-03-15T11:22:54.450Z,888
2019-03-15T11:23:55.843Z,1056
2019-03-15T11:24:57.239Z,856
2019-03-15T11:25:58.640Z,840
2019-03-15T11:27:00.035Z,1032
2019-03-15T11:28:01.434Z,924
2019-03-15T11:29:02.842Z,956
2019-03-15T11:30:04.240Z,956
2019-03-15T11:31:05.623Z,1116
2019-03-15T11:32:07.025Z,1216
2019-03-15T11:33:08.412Z,1252
2019-03-15T11:34:09.805Z,1264
2019-03-15T11:35:11.197Z,1096
2019-03-15T11:36:12.587Z,1176
2019-03-15T11:37:13.986Z,1568
2019-03-15T11:38:15.383Z,1604
2019-03-15T11:39:16.777Z,1448
2019-03-15T11:40:19.433Z,1804
2019-03-15T11:41:19.526Z,1608
2019-03-15T11:42:20.921Z,1388
2019-03-15T11:43:22.310Z,1104
2019-03-15T11:44:23.716Z,1204
2019-03-15T11:45:25.203Z,1068
2019-03-15T11:46:26.602Z,1228
2019-03-15T11:47:28.141Z,1188
2019-03-15T11:48:29.365Z,1248
2019-03-15T11:49:30.765Z,1480
2019-03-15T11:50:32.158Z,1404
2019-03-15T11:51:33.551Z,1996
2019-03-15T11:52:34.957Z,1740
2019-03-15T11:53:36.348Z,1508
2019-03-15T11:54:37.742Z,1180
2019-03-15T11:55:39.135Z,1124
2019-03-15T11:56:40.530Z,1228
2019-03-15T11:57:41.938Z,1192
2019-03-15T11:58:43.326Z,1248
2019-03-15T11:59:44.725Z,1128
2019-03-15T12:00:46.117Z,1108
2019-03-15T12:01:47.509Z,1100
2019-03-15T12:02:48.906Z,1288
2019-03-15T12:03:53.415Z,1332
2019-03-15T12:04:51.677Z,1380
2019-03-15T12:05:53.071Z,1580
2019-03-15T12:06:54.465Z,1740
2019-03-15T12:07:55.864Z,1804
2019-03-15T12:08:57.276Z,1576
2019-03-15T12:09:58.678Z,1724
2019-03-15T12:11:00.070Z,1712
2019-03-15T12:12:01.460Z,1700
2019-03-15T12:13:02.859Z,1280
2019-03-15T12:14:04.250Z,1276
2019-03-15T12:15:05.650Z,1008
2019-03-15T12:16:07.049Z,1024
2019-03-15T12:17:08.453Z,1044
2019-03-15T12:18:09.848Z,1040
2019-03-15T12:19:11.236Z,1044
2019-03-15T12:20:12.624Z,944
2019-03-15T12:21:14.014Z,1040
2019-03-15T12:22:15.406Z,1148
2019-03-15T12:23:16.795Z,1204
2019-03-15T12:24:18.187Z,1496
2019-03-15T12:25:19.589Z,1404
2019-03-15T12:26:20.982Z,1528
2019-03-15T12:27:22.377Z,1712
2019-03-15T12:28:23.772Z,1904
2019-03-15T12:29:25.169Z,1748
2019-03-15T12:30:26.559Z,2040
2019-03-15T12:31:27.952Z,1848
2019-03-15T12:32:29.348Z,1776
2019-03-15T12:33:30.744Z,1800
2019-03-15T12:34:32.235Z,2080
2019-03-15T12:35:33.672Z,1908
2019-03-15T12:36:35.071Z,1904
2019-03-15T12:37:36.470Z,1792
2019-03-15T12:38:37.902Z,1492
2019-03-15T12:39:39.299Z,1096
2019-03-15T12:40:40.684Z,1304
2019-03-15T12:41:42.193Z,1484
2019-03-15T12:42:43.445Z,1272
2019-03-15T12:43:44.839Z,1400
2019-03-15T12:44:46.242Z,1736
2019-03-15T12:45:47.635Z,1232
2019-03-15T12:46:49.029Z,1244
2019-03-15T12:47:50.418Z,1480
2019-03-15T12:48:51.816Z,1316
2019-03-15T12:49:53.210Z,1044
2019-03-15T12:50:54.603Z,1244
2019-03-15T12:51:55.993Z,1004
2019-03-15T12:52:57.387Z,1204
2019-03-15T12:53:58.781Z,1100
2019-03-15T12:55:00.362Z,1064
2019-03-15T12:56:02.371Z,1100
2019-03-15T12:57:03.772Z,1256
2019-03-15T12:58:05.167Z,1496
2019-03-15T12:59:06.561Z,1360
2019-03-15T13:00:07.954Z,1460
2019-03-15T13:01:09.349Z,1520
2019-03-15T13:02:10.749Z,1048
2019-03-15T13:03:12.142Z,1132
2019-03-15T13:04:13.539Z,996
2019-03-15T13:05:14.943Z,928
2019-03-15T13:06:16.330Z,792
2019-03-15T13:07:17.730Z,892
2019-03-15T13:08:19.123Z,1004
2019-03-15T13:09:20.516Z,788
2019-03-15T13:10:21.910Z,872
2019-03-15T13:11:23.300Z,732
2019-03-15T13:12:24.692Z,668
2019-03-15T13:13:26.097Z,764
2019-03-15T13:14:27.493Z,808
2019-03-15T13:15:31.800Z,744
2019-03-15T13:16:30.252Z,720
2019-03-15T13:17:31.646Z,668
2019-03-15T13:18:33.042Z,768
2019-03-15T13:19:34.437Z,864
2019-03-15T13:20:35.833Z,784
2019-03-15T13:21:37.235Z,788
2019-03-15T13:22:38.729Z,900
2019-03-15T13:23:40.189Z,796
2019-03-15T13:24:41.584Z,1068
2019-03-15T13:25:42.977Z,964
2019-03-15T13:26:44.374Z,812
2019-03-15T13:27:45.795Z,876
2019-03-15T13:28:47.218Z,772
2019-03-15T13:29:48.622Z,708
2019-03-15T13:30:50.008Z,704
2019-03-15T13:31:51.415Z,860
2019-03-15T13:32:52.955Z,744
2019-03-15T13:33:56.407Z,816
2019-03-15T13:34:57.704Z,828
2019-03-15T13:35:59.083Z,824
2019-03-15T13:37:00.486Z,964
2019-03-15T13:38:01.883Z,952
2019-03-15T13:39:03.275Z,756
2019-03-15T13:40:04.667Z,792
2019-03-15T13:41:06.056Z,772
2019-03-15T13:42:07.476Z,868
2019-03-15T13:43:08.871Z,1036
2019-03-15T13:44:10.268Z,1100
2019-03-15T13:45:11.656Z,996
2019-03-15T13:46:13.092Z,932
2019-03-15T13:47:14.493Z,904
2019-03-15T13:48:15.917Z,800
2019-03-15T13:49:17.308Z,720
2019-03-15T13:50:18.707Z,708
2019-03-15T13:51:22.579Z,1192
2019-03-15T13:52:21.461Z,1092
2019-03-15T13:53:22.881Z,1480
2019-03-15T13:54:24.385Z,1300
2019-03-15T13:55:25.798Z,1288
2019-03-15T13:56:27.195Z,1352
2019-03-15T13:57:28.591Z,1620
2019-03-15T13:58:29.997Z,1352
2019-03-15T13:59:31.403Z,1520
2019-03-15T14:00:32.799Z,1732
2019-03-15T14:01:34.220Z,1548
2019-03-15T14:02:35.589Z,1536
2019-03-15T14:03:36.989Z,1152
2019-03-15T14:04:38.390Z,1376
2019-03-15T14:05:39.796Z,1132
2019-03-15T14:06:41.187Z,1224
2019-03-15T14:07:42.595Z,1128
2019-03-15T14:08:44.022Z,1504
2019-03-15T14:09:45.418Z,1700
2019-03-15T14:10:49.457Z,1668
2019-03-15T14:11:48.225Z,1336
2019-03-15T14:12:49.620Z,1856
2019-03-15T14:13:51.016Z,1732
2019-03-15T14:14:52.410Z,2052
2019-03-15T14:15:53.801Z,2152
2019-03-15T14:16:55.194Z,1648
2019-03-15T14:17:56.593Z,1784
2019-03-15T14:18:57.989Z,1684
2019-03-15T14:19:59.390Z,1744
2019-03-15T14:21:00.786Z,1592
2019-03-15T14:22:02.185Z,1460